createdAt,value
2023-03-25T00:02:01.234Z,90.91
2023-03-25T00:05:04.035Z,91.43
2023-03-25T00:08:06.403Z,91.08
2023-03-25T00:11:08.700Z,91.55
2023-03-25T00:14:12.335Z,92.80
2023-03-25T00:17:17.465Z,94.60
2023-03-25T00:20:20.498Z,93.99
2023-03-25T00:23:23.255Z,100.00
2023-03-25T00:26:29.956Z,100.00
2023-03-25T00:29:32.168Z,100.00
2023-03-25T00:32:34.371Z,100.00
2023-03-25T00:35:45.622Z,100.00
2023-03-25T00:38:48.915Z,99.54
2023-03-25T00:41:54.107Z,97.34
2023-03-25T00:44:56.349Z,94.77
2023-03-25T00:47:58.592Z,93.29
2023-03-25T00:51:07.273Z,91.54
2023-03-25T00:54:10.140Z,91.18
2023-03-25T00:57:12.447Z,89.72
2023-03-25T01:00:16.959Z,91.14
2023-03-25T01:03:19.231Z,90.76
2023-03-25T01:06:21.760Z,90.22
2023-03-25T01:09:24.105Z,88.46
2023-03-25T01:12:27.333Z,86.11
2023-03-25T01:15:29.603Z,84.89
2023-03-25T01:18:34.917Z,87.42
2023-03-25T01:21:37.231Z,89.50
2023-03-25T01:24:39.629Z,91.21
2023-03-25T01:27:41.806Z,91.68
2023-03-25T01:30:43.985Z,92.93
2023-03-25T01:33:46.188Z,95.23
2023-03-25T01:36:48.589Z,99.35
2023-03-25T01:39:50.781Z,100.00
2023-03-25T01:42:53.920Z,100.00
2023-03-25T01:45:57.164Z,100.00
2023-03-25T01:49:01.243Z,100.00
2023-03-25T01:52:09.252Z,100.00
2023-03-25T01:55:11.721Z,100.00
2023-03-25T01:58:16.266Z,100.00
2023-03-25T02:01:21.883Z,100.00
2023-03-25T02:04:39.248Z,100.00
2023-03-25T02:07:43.060Z,100.00
2023-03-25T02:10:46.572Z,100.00
2023-03-25T02:13:48.937Z,100.00
2023-03-25T02:17:16.690Z,100.00
2023-03-25T02:20:31.134Z,100.00
2023-03-25T02:23:41.909Z,100.00
2023-03-25T02:27:13.913Z,100.00
2023-03-25T02:30:57.989Z,100.00
2023-03-25T02:34:18.381Z,100.00
2023-03-25T02:37:47.400Z,100.00
2023-03-25T02:41:05.100Z,100.00
2023-03-25T02:44:14.712Z,100.00
2023-03-25T02:47:19.714Z,100.00
2023-03-25T02:50:52.233Z,100.00
2023-03-25T02:53:57.339Z,100.00
2023-03-25T02:57:00.224Z,100.00
2023-03-25T03:00:10.393Z,100.00
2023-03-25T03:03:12.727Z,100.00
2023-03-25T03:06:18.699Z,100.00
2023-03-25T03:09:27.488Z,100.00
2023-03-25T03:12:52.316Z,100.00
2023-03-25T03:16:03.496Z,100.00
2023-03-25T03:19:16.815Z,100.00
2023-03-25T03:22:40.433Z,100.00
2023-03-25T03:25:50.731Z,100.00
2023-03-25T03:28:58.364Z,100.00
2023-03-25T03:32:18.131Z,100.00
2023-03-25T03:35:22.299Z,100.00
2023-03-25T03:38:28.706Z,100.00
2023-03-25T03:41:33.914Z,100.00
2023-03-25T03:44:38.736Z,100.00
2023-03-25T03:47:43.994Z,100.00
2023-03-25T03:51:08.791Z,100.00
2023-03-25T03:54:14.613Z,100.00
2023-03-25T03:57:39.182Z,100.00
2023-03-25T04:01:11.868Z,100.00
2023-03-25T04:04:22.385Z,100.00
2023-03-25T04:07:39.106Z,100.00
2023-03-25T04:10:59.333Z,100.00
2023-03-25T04:14:03.200Z,100.00
2023-03-25T04:17:06.349Z,100.00
2023-03-25T04:20:11.471Z,100.00
2023-03-25T04:23:16.406Z,100.00
2023-03-25T04:26:19.984Z,100.00
2023-03-25T04:29:22.151Z,100.00
2023-03-25T04:32:27.941Z,100.00
2023-03-25T04:35:33.040Z,100.00
2023-03-25T04:38:37.735Z,100.00
2023-03-25T04:41:40.472Z,100.00
2023-03-25T04:44:42.662Z,100.00
2023-03-25T04:47:47.385Z,100.00
2023-03-25T04:50:51.805Z,100.00
2023-03-25T04:53:54.015Z,100.00
2023-03-25T04:56:57.219Z,100.00
2023-03-25T04:59:59.423Z,100.00
2023-03-25T05:03:02.118Z,100.00
2023-03-25T05:06:04.615Z,100.00
2023-03-25T05:09:10.489Z,100.00
2023-03-25T05:12:12.980Z,100.00
2023-03-25T05:15:17.263Z,100.00
2023-03-25T05:18:19.491Z,100.00
2023-03-25T05:21:21.833Z,100.00
2023-03-25T05:24:24.128Z,100.00
2023-03-25T05:27:26.368Z,100.00
2023-03-25T05:30:32.522Z,100.00
2023-03-25T05:33:45.434Z,100.00
2023-03-25T05:36:47.801Z,100.00
2023-03-25T05:39:51.795Z,100.00
2023-03-25T05:42:54.852Z,100.00
2023-03-25T05:45:57.152Z,100.00
2023-03-25T05:49:01.032Z,100.00
2023-03-25T05:52:03.474Z,100.00
2023-03-25T05:55:06.388Z,100.00
2023-03-25T05:58:08.718Z,100.00
2023-03-25T06:01:31.324Z,100.00
2023-03-25T06:04:38.038Z,100.00
2023-03-25T06:07:45.846Z,100.00
2023-03-25T06:10:48.360Z,100.00
2023-03-25T06:13:50.649Z,100.00
2023-03-25T06:16:52.824Z,100.00
2023-03-25T06:19:55.254Z,100.00
2023-03-25T06:22:57.561Z,100.00
2023-03-25T06:25:59.851Z,100.00
2023-03-25T06:29:02.800Z,100.00
2023-03-25T06:32:05.645Z,100.00
2023-03-25T06:35:09.576Z,100.00
2023-03-25T06:38:11.842Z,100.00
2023-03-25T06:41:14.925Z,100.00
2023-03-25T06:44:17.199Z,100.00
2023-03-25T06:47:26.936Z,100.00
2023-03-25T06:50:29.198Z,100.00
2023-03-25T06:53:32.788Z,100.00
2023-03-25T06:56:35.084Z,100.00
2023-03-25T06:59:37.336Z,100.00
2023-03-25T07:02:39.889Z,100.00
2023-03-25T07:05:43.519Z,100.00
2023-03-25T07:08:46.088Z,100.00
2023-03-25T07:11:48.316Z,100.00
2023-03-25T07:14:52.442Z,100.00
2023-03-25T07:17:54.755Z,100.00
2023-03-25T07:20:57.016Z,100.00
2023-03-25T07:23:59.218Z,100.00
2023-03-25T07:27:01.399Z,100.00
2023-03-25T07:30:04.790Z,100.00
2023-03-25T07:33:07.074Z,100.00
2023-03-25T07:36:12.090Z,100.00
2023-03-25T07:39:14.335Z,100.00
2023-03-25T07:42:16.576Z,100.00
2023-03-25T07:45:18.714Z,100.00
2023-03-25T07:48:22.755Z,100.00
2023-03-25T07:51:24.964Z,100.00
2023-03-25T07:54:27.222Z,100.00
2023-03-25T07:57:29.420Z,100.00
2023-03-25T08:00:31.643Z,100.00
2023-03-25T08:03:35.194Z,100.00
2023-03-25T08:06:37.783Z,100.00
2023-03-25T08:09:41.603Z,100.00
2023-03-25T08:12:44.608Z,100.00
2023-03-25T08:15:46.773Z,100.00
2023-03-25T08:18:52.793Z,100.00
2023-03-25T08:21:54.958Z,100.00
2023-03-25T08:24:57.211Z,100.00
2023-03-25T08:27:59.415Z,100.00
2023-03-25T08:31:06.770Z,100.00
2023-03-25T08:34:09.011Z,100.00
2023-03-25T08:37:11.202Z,100.00
2023-03-25T08:40:14.284Z,100.00
2023-03-25T08:43:16.448Z,100.00
2023-03-25T08:46:18.748Z,100.00
2023-03-25T08:49:21.033Z,100.00
2023-03-25T08:52:23.328Z,100.00
2023-03-25T08:55:25.998Z,100.00
2023-03-25T08:58:28.234Z,100.00
2023-03-25T09:01:30.932Z,100.00
2023-03-25T09:04:33.360Z,100.00
2023-03-25T09:07:36.181Z,100.00
2023-03-25T09:10:38.490Z,100.00
2023-03-25T09:13:41.339Z,100.00
2023-03-25T09:16:43.581Z,100.00
2023-03-25T09:19:46.569Z,100.00
2023-03-25T09:22:48.970Z,100.00
2023-03-25T09:25:51.482Z,100.00
2023-03-25T09:28:55.751Z,100.00
2023-03-25T09:31:59.670Z,100.00
2023-03-25T09:35:02.062Z,100.00
2023-03-25T09:38:04.420Z,100.00
2023-03-25T09:41:24.074Z,100.00
2023-03-25T09:44:49.530Z,100.00
2023-03-25T09:48:04.019Z,100.00
2023-03-25T09:51:12.721Z,100.00
2023-03-25T09:54:22.917Z,100.00
2023-03-25T09:57:29.162Z,100.00
2023-03-25T10:00:31.669Z,100.00
2023-03-25T10:03:55.300Z,100.00
2023-03-25T10:07:14.517Z,100.00
2023-03-25T10:10:22.484Z,100.00
2023-03-25T10:13:27.269Z,100.00
2023-03-25T10:16:50.902Z,100.00
2023-03-25T10:20:22.220Z,100.00
2023-03-25T10:23:42.604Z,100.00
2023-03-25T10:27:00.754Z,100.00
2023-03-25T10:30:18.093Z,100.00
2023-03-25T10:33:31.558Z,100.00
2023-03-25T10:36:39.179Z,100.00
2023-03-25T10:39:45.359Z,100.00
2023-03-25T10:43:24.805Z,100.00
2023-03-25T10:46:37.666Z,100.00
2023-03-25T10:49:41.714Z,100.00
2023-03-25T10:52:44.417Z,100.00
2023-03-25T10:55:48.059Z,100.00
2023-03-25T10:58:54.355Z,100.00
2023-03-25T11:01:57.537Z,100.00
2023-03-25T11:05:05.064Z,100.00
2023-03-25T11:08:23.763Z,100.00
2023-03-25T11:11:34.577Z,100.00
2023-03-25T11:14:40.880Z,100.00
2023-03-25T11:17:45.002Z,100.00
2023-03-25T11:20:56.055Z,100.00
2023-03-25T11:23:58.750Z,100.00
2023-03-25T11:27:01.532Z,100.00
2023-03-25T11:30:07.469Z,100.00
2023-03-25T11:33:15.153Z,100.00
2023-03-25T11:36:23.476Z,100.00
2023-03-25T11:39:30.470Z,100.00
2023-03-25T11:42:49.543Z,100.00
2023-03-25T11:45:52.453Z,100.00
2023-03-25T11:48:55.392Z,100.00
2023-03-25T11:52:01.211Z,100.00
2023-03-25T11:55:03.896Z,100.00
2023-03-25T11:58:06.199Z,100.00
2023-03-25T12:01:24.970Z,100.00
2023-03-25T12:04:27.522Z,100.00
2023-03-25T12:07:30.415Z,100.00
2023-03-25T12:10:32.514Z,100.00
2023-03-25T12:13:53.564Z,100.00
2023-03-25T12:17:15.741Z,100.00
2023-03-25T12:20:26.802Z,100.00
2023-03-25T12:23:43.087Z,100.00
2023-03-25T12:27:07.859Z,100.00
2023-03-25T12:30:39.412Z,100.00
2023-03-25T12:33:57.172Z,100.00
2023-03-25T12:37:27.022Z,100.00
2023-03-25T12:40:51.204Z,100.00
2023-03-25T12:44:07.225Z,100.00
2023-03-25T12:47:25.899Z,100.00
2023-03-25T12:50:50.261Z,100.00
2023-03-25T12:54:41.494Z,100.00
2023-03-25T12:58:05.578Z,100.00
2023-03-25T13:01:10.918Z,100.00
2023-03-25T13:04:28.456Z,100.00
2023-03-25T13:07:46.776Z,100.00
2023-03-25T13:10:57.152Z,100.00
2023-03-25T13:14:03.500Z,100.00
2023-03-25T13:17:10.819Z,100.00
2023-03-25T13:20:14.844Z,100.00
2023-03-25T13:23:21.651Z,100.00
2023-03-25T13:26:25.057Z,100.00
2023-03-25T13:29:51.859Z,100.00
2023-03-25T13:32:58.178Z,100.00
2023-03-25T13:36:22.804Z,100.00
2023-03-25T13:39:29.750Z,100.00
2023-03-25T13:42:47.078Z,100.00
2023-03-25T13:45:56.342Z,100.00
2023-03-25T13:49:03.383Z,100.00
2023-03-25T13:55:19.511Z,100.00
2023-03-25T13:58:46.807Z,100.00
2023-03-25T14:02:11.814Z,100.00
2023-03-25T14:05:26.050Z,100.00
2023-03-25T14:09:01.882Z,100.00
2023-03-25T14:12:18.943Z,100.00
2023-03-25T14:15:28.395Z,100.00
2023-03-25T14:18:32.266Z,100.00
2023-03-25T14:21:41.795Z,100.00
2023-03-25T14:24:45.111Z,100.00
2023-03-25T14:27:51.370Z,100.00
2023-03-25T14:31:23.151Z,100.00
2023-03-25T14:34:26.483Z,100.00
2023-03-25T14:37:30.679Z,100.00
2023-03-25T14:41:02.116Z,100.00
2023-03-25T14:44:18.781Z,100.00
2023-03-25T14:47:32.087Z,100.00
2023-03-25T14:50:35.062Z,100.00
2023-03-25T14:53:38.891Z,100.00
2023-03-25T14:56:49.991Z,100.00
2023-03-25T15:00:01.513Z,100.00
2023-03-25T15:03:08.920Z,100.00
2023-03-25T15:06:32.711Z,100.00
2023-03-25T15:09:47.664Z,100.00
2023-03-25T15:12:53.097Z,100.00
2023-03-25T15:16:18.719Z,100.00
2023-03-25T15:19:21.631Z,100.00
2023-03-25T15:22:24.019Z,100.00
2023-03-25T15:25:26.696Z,100.00
2023-03-25T15:28:58.219Z,100.00
2023-03-25T15:32:27.344Z,100.00
2023-03-25T16:51:39.464Z,100.00
2023-03-25T16:54:52.263Z,100.00
2023-03-25T16:57:54.980Z,100.00
2023-03-25T17:00:58.002Z,100.00
2023-03-25T17:04:11.655Z,100.00
2023-03-25T17:07:20.867Z,100.00
2023-03-25T17:10:28.734Z,100.00
2023-03-25T17:13:35.645Z,100.00
2023-03-25T17:16:38.364Z,100.00
2023-03-25T17:19:48.159Z,100.00
2023-03-25T17:22:58.436Z,100.00
2023-03-25T17:26:08.801Z,100.00
2023-03-25T17:29:12.258Z,100.00
2023-03-25T17:32:17.705Z,100.00
2023-03-25T17:35:27.346Z,100.00
2023-03-25T17:38:34.155Z,100.00
2023-03-25T17:41:38.545Z,100.00
2023-03-25T17:44:44.106Z,100.00
2023-03-25T17:47:47.301Z,100.00
2023-03-25T17:50:51.922Z,100.00
2023-03-25T17:53:55.383Z,100.00
2023-03-25T17:56:57.789Z,100.00
2023-03-25T18:00:00.029Z,100.00
2023-03-25T18:03:02.441Z,100.00
2023-03-25T18:06:05.363Z,100.00
2023-03-25T18:09:18.897Z,100.00
2023-03-25T18:12:21.165Z,100.00
2023-03-25T18:15:23.766Z,100.00
2023-03-25T18:18:26.652Z,100.00
2023-03-25T18:21:29.112Z,100.00
2023-03-25T18:24:31.688Z,100.00
2023-03-25T18:27:43.335Z,100.00
2023-03-25T18:30:52.610Z,100.00
2023-03-25T18:33:56.294Z,100.00
2023-03-25T18:36:58.810Z,100.00
2023-03-25T18:40:01.508Z,100.00
2023-03-25T18:43:04.467Z,100.00
2023-03-25T18:46:06.924Z,100.00
2023-03-25T18:49:14.952Z,100.00
2023-03-25T18:52:17.296Z,100.00
2023-03-25T18:55:19.730Z,100.00
2023-03-25T18:58:27.207Z,100.00
2023-03-25T19:01:29.731Z,100.00
2023-03-25T19:04:33.737Z,100.00
2023-03-25T19:07:35.941Z,100.00
2023-03-25T19:10:38.476Z,100.00
2023-03-25T19:13:41.501Z,100.00
2023-03-25T19:16:57.174Z,100.00
2023-03-25T19:20:05.395Z,100.00
2023-03-25T19:23:07.832Z,100.00
2023-03-25T19:26:10.497Z,100.00
2023-03-25T19:29:13.069Z,100.00
2023-03-25T19:32:15.580Z,100.00
2023-03-25T19:35:19.359Z,100.00
2023-03-25T19:38:23.056Z,100.00
2023-03-25T19:41:25.596Z,100.00
2023-03-25T19:44:28.199Z,100.00
2023-03-25T19:47:31.120Z,100.00
2023-03-25T19:50:34.749Z,100.00
2023-03-25T19:53:37.402Z,100.00
2023-03-25T19:56:41.652Z,100.00
2023-03-25T19:59:44.784Z,100.00
2023-03-25T20:02:52.156Z,100.00
2023-03-25T20:05:58.990Z,100.00
2023-03-25T20:09:01.442Z,100.00
2023-03-25T20:12:05.372Z,100.00
2023-03-25T20:15:09.979Z,100.00
2023-03-25T20:18:12.758Z,100.00
2023-03-25T20:21:15.459Z,100.00
2023-03-25T20:24:18.023Z,100.00
2023-03-25T20:27:21.599Z,100.00
2023-03-25T20:30:24.831Z,100.00
2023-03-25T20:33:28.037Z,100.00
2023-03-25T20:36:31.069Z,100.00
2023-03-25T20:39:33.519Z,100.00
2023-03-25T20:42:35.967Z,100.00
2023-03-25T20:45:38.215Z,100.00
2023-03-25T20:48:41.254Z,100.00
2023-03-25T20:51:43.783Z,100.00
2023-03-25T20:54:48.018Z,100.00
2023-03-25T20:57:51.921Z,100.00
2023-03-25T21:01:05.140Z,100.00
2023-03-25T21:04:09.652Z,100.00
2023-03-25T21:07:12.059Z,100.00
2023-03-25T21:10:14.632Z,100.00
2023-03-25T21:13:16.941Z,100.00
2023-03-25T21:16:19.497Z,100.00
2023-03-25T21:19:23.275Z,100.00
2023-03-25T21:22:27.156Z,100.00
2023-03-25T21:25:34.391Z,100.00
2023-03-25T21:28:40.834Z,100.00
2023-03-25T21:31:43.114Z,100.00
2023-03-25T21:34:45.426Z,100.00
2023-03-25T21:37:49.075Z,100.00
2023-03-25T21:40:56.019Z,100.00
2023-03-25T21:43:58.486Z,100.00
2023-03-25T21:47:08.454Z,100.00
2023-03-25T21:50:12.620Z,100.00
2023-03-25T21:53:19.276Z,100.00
2023-03-25T21:56:25.065Z,100.00
2023-03-25T21:59:27.305Z,100.00
2023-03-25T22:02:29.853Z,100.00
2023-03-25T22:05:32.809Z,100.00
2023-03-25T22:08:36.173Z,100.00
2023-03-25T22:11:38.459Z,100.00
2023-03-25T22:14:40.701Z,100.00
2023-03-25T22:17:42.989Z,100.00
2023-03-25T22:20:45.181Z,100.00
2023-03-25T22:23:48.663Z,100.00
2023-03-25T22:26:50.926Z,100.00
2023-03-25T22:29:53.204Z,100.00
2023-03-25T22:32:55.378Z,100.00
2023-03-25T22:36:03.528Z,100.00
2023-03-25T22:39:06.618Z,100.00
2023-03-25T22:42:08.881Z,100.00
2023-03-25T22:45:11.584Z,100.00
2023-03-25T22:48:13.851Z,100.00
2023-03-25T22:51:18.857Z,100.00
2023-03-25T22:54:21.813Z,100.00
2023-03-25T22:57:24.083Z,100.00
2023-03-25T23:00:26.393Z,100.00
2023-03-25T23:03:29.151Z,100.00
2023-03-25T23:06:33.061Z,100.00
2023-03-25T23:09:41.890Z,100.00
2023-03-25T23:12:44.866Z,100.00
2023-03-25T23:15:47.667Z,100.00
2023-03-25T23:18:50.859Z,100.00
2023-03-25T23:21:54.244Z,100.00
2023-03-25T23:24:59.056Z,100.00
2023-03-25T23:28:01.263Z,100.00
2023-03-25T23:31:09.875Z,100.00
2023-03-25T23:34:14.891Z,100.00
2023-03-25T23:37:17.091Z,100.00
2023-03-25T23:40:19.471Z,100.00
2023-03-25T23:43:21.642Z,100.00
2023-03-25T23:46:25.350Z,100.00
2023-03-25T23:49:33.068Z,100.00
2023-03-25T23:52:35.558Z,100.00
2023-03-25T23:55:37.731Z,100.00
2023-03-25T23:58:40.978Z,100.00
